Time;durP1;ratioP1;P1;durP2;ratioP2;P2;SDS_P1;SDS_P2;PMS_P1;PMS_P2;Temp;Humidity;BMP_temperature;BMP_pressure;BME280_temperature;BME280_humidity;BME280_pressure;Samples;Min_cycle;Max_cycle;Signal;HPM_P1;HPM_P2
2021/11/04 01:29:00;;;;;;;40.17;21.90;;;8.00;95.70;;;;;;5116449;22;25862485;-92
2021/11/04 01:31:58;;;;;;;43.42;21.42;;;7.90;95.60;;;;;;6173472;23;20447;-91
2021/11/04 01:34:50;;;;;;;32.25;21.17;;;7.90;95.70;;;;;;6150417;23;20005;-89
2021/11/04 01:37:43;;;;;;;35.30;21.23;;;7.90;95.80;;;;;;6176181;23;20036;-93
2021/11/04 01:40:19;;;;;;;41.78;21.35;;;7.80;95.70;;;;;;6149181;23;20059;-90
2021/11/04 01:42:58;;;;;;;;;;;;;;;;;;;;;
2021/11/04 01:45:56;;;;;;;36.03;20.17;;;7.80;95.80;;;;;;6190081;23;20080;-93
2021/11/04 01:48:57;;;;;;;;;;;;;;;;;;;;;
2021/11/04 01:51:59;;;;;;;34.13;20.95;;;7.90;95.90;;;;;;6185573;23;20032;-91
2021/11/04 01:54:40;;;;;;;;;;;;;;;;;;;;;
2021/11/04 01:57:45;;;;;;;36.75;21.50;;;7.90;96.00;;;;;;6166717;23;20084;-92
2021/11/04 02:00:35;;;;;;;37.78;21.88;;;7.90;96.00;;;;;;6161255;23;20012;-91
2021/11/04 02:03:35;;;;;;;54.58;24.73;;;7.90;96.00;;;;;;6165229;23;20385;-92
2021/11/04 02:09:43;;;;;;;50.03;23.73;;;7.80;96.00;;;;;;6168035;23;19996;-92
2021/11/04 02:12:46;;;;;;;36.58;22.92;;;7.80;96.00;;;;;;6165305;23;19998;-92
2021/11/04 02:15:42;;;;;;;34.50;23.52;;;7.80;96.00;;;;;;6160308;23;20008;-93
2021/11/04 02:18:44;;;;;;;;;;;;;;;;;;;;;
2021/11/04 02:21:44;;;;;;;;;;;;;;;;;;;;;
2021/11/04 02:24:28;;;;;;;;;;;;;;;;;;;;;
2021/11/04 02:27:10;;;;;;;41.20;24.73;;;7.80;96.00;;;;;;6189255;23;20028;-90
2021/11/04 02:29:50;;;;;;;37.65;22.92;;;7.80;96.00;;;;;;6141023;23;20017;-90
2021/11/04 02:32:33;;;;;;;;;;;;;;;;;;;;;
2021/11/04 02:35:11;;;;;;;45.25;24.00;;;7.80;96.00;;;;;;6166482;23;20153;-90
2021/11/04 02:38:03;;;;;;;36.22;23.35;;;7.80;96.00;;;;;;6163914;23;20427;-90
2021/11/04 02:40:57;;;;;;;40.10;24.35;;;7.80;96.10;;;;;;6164355;23;20067;-91
2021/11/04 02:46:30;;;;;;;37.00;23.45;;;7.80;96.00;;;;;;6189572;23;20009;-91
2021/11/04 02:49:30;;;;;;;;;;;;;;;;;;;;;
2021/11/04 02:52:27;;;;;;;39.80;23.65;;;7.80;96.00;;;;;;6156992;23;20079;-90
2021/11/04 02:55:17;;;;;;;;;;;;;;;;;;;;;
2021/11/04 02:58:17;;;;;;;40.28;25.40;;;7.90;96.10;;;;;;6168673;23;20047;-91
2021/11/04 03:01:16;;;;;;;40.35;25.08;;;7.90;96.10;;;;;;6159184;23;20016;-93
2021/11/04 03:03:54;;;;;;;42.05;26.23;;;7.90;96.10;;;;;;6187569;23;19989;-93
2021/11/04 03:09:36;;;;;;;48.95;27.58;;;7.90;96.10;;;;;;6174296;23;20005;-90
2021/11/04 03:12:59;;;;;;;;;;;;;;;;;;;;;
2021/11/04 03:18:39;;;;;;;47.10;27.80;;;8.00;96.20;;;;;;6189562;23;20016;-91
2021/11/04 03:21:25;;;;;;;45.35;28.33;;;8.00;96.20;;;;;;6140914;23;20001;-91
2021/11/04 03:23:58;;;;;;;44.47;26.27;;;8.00;96.20;;;;;;6140202;23;20005;-92
2021/11/04 03:26:32;;;;;;;46.00;28.90;;;8.00;96.20;;;;;;6138833;23;20009;-90
2021/11/04 03:29:19;;;;;;;;;;;;;;;;;;;;;
2021/11/04 03:32:45;;;;;;;46.10;27.13;;;8.10;96.20;;;;;;6167747;23;20084;-91
2021/11/04 03:35:35;;;;;;;48.40;28.20;;;8.10;96.20;;;;;;6162176;23;20009;-91
2021/11/04 03:38:36;;;;;;;44.40;27.35;;;8.10;96.10;;;;;;6139556;23;20052;-92
2021/11/04 03:41:14;;;;;;;44.80;27.90;;;8.00;96.10;;;;;;6161854;23;20077;-92
2021/11/04 03:44:19;;;;;;;;;;;;;;;;;;;;;
2021/11/04 03:50:22;;;;;;;41.78;25.40;;;8.10;96.20;;;;;;6126430;23;20013;-92
2021/11/04 03:53:09;;;;;;;;;;;;;;;;;;;;;
2021/11/04 03:56:03;;;;;;;;;;;;;;;;;;;;;
2021/11/04 03:58:43;;;;;;;;;;;;;;;;;;;;;
2021/11/04 04:02:00;;;;;;;;;;;;;;;;;;;;;
2021/11/04 04:05:07;;;;;;;;;;;;;;;;;;;;;
2021/11/04 04:08:27;;;;;;;42.13;26.70;;;8.10;96.00;;;;;;6189971;23;20392;-91
2021/11/04 04:11:05;;;;;;;;;;;;;;;;;;;;;
2021/11/04 04:14:00;;;;;;;39.42;25.35;;;8.10;96.00;;;;;;6189348;23;20041;-90
2021/11/04 04:16:44;;;;;;;;;;;;;;;;;;;;;
2021/11/04 04:19:17;;;;;;;35.92;24.17;;;8.10;96.00;;;;;;6190010;23;20104;-91
2021/11/04 04:22:15;;;;;;;36.28;24.48;;;8.10;95.90;;;;;;6163547;23;20001;-91
2021/11/04 04:25:03;;;;;;;33.05;23.38;;;8.10;95.90;;;;;;6169638;23;20080;-92
2021/11/04 04:30:57;;;;;;;;;;;;;;;;;;;;;
2021/11/04 04:34:19;;;;;;;;;;;;;;;;;;;;;
2021/11/04 04:40:52;;;;;;;;;;;;;;;;;;;;;
2021/11/04 04:44:02;;;;;;;30.27;21.60;;;8.10;95.70;;;;;;6157018;23;20036;-91
2021/11/04 04:49:31;;;;;;;29.17;20.95;;;8.10;95.70;;;;;;6129474;23;20435;-91
2021/11/04 04:55:37;;;;;;;;;;;;;;;;;;;;;
2021/11/04 04:58:16;;;;;;;;;;;;;;;;;;;;;
2021/11/04 05:01:25;;;;;;;30.90;21.42;;;8.10;95.70;;;;;;6160009;23;20097;-93
2021/11/04 05:04:11;;;;;;;31.77;22.48;;;8.10;95.90;;;;;;6160492;23;20033;-92
2021/11/04 05:07:14;;;;;;;29.88;21.17;;;8.10;95.70;;;;;;6159100;23;20010;-91
2021/11/04 05:09:51;;;;;;;30.38;21.33;;;8.10;95.70;;;;;;6159361;23;20001;-91
2021/11/04 05:13:04;;;;;;;;;;;;;;;;;;;;;
2021/11/04 05:15:38;;;;;;;31.60;21.23;;;8.20;95.60;;;;;;6155487;23;20101;-92
2021/11/04 05:18:24;;;;;;;31.42;22.58;;;8.20;95.60;;;;;;6158711;23;20002;-92
2021/11/04 05:21:13;;;;;;;30.50;21.17;;;8.10;95.60;;;;;;6160176;23;20014;-93
2021/11/04 05:24:37;;;;;;;;;;;;;;;;;;;;;
2021/11/04 05:27:49;;;;;;;34.80;23.40;;;8.20;95.60;;;;;;6156555;23;20516;-93
2021/11/04 05:30:27;;;;;;;35.22;23.30;;;8.10;95.60;;;;;;6159861;23;20096;-93
2021/11/04 05:33:27;;;;;;;;;;;;;;;;;;;;;
2021/11/04 05:36:27;;;;;;;;;;;;;;;;;;;;;
2021/11/04 05:38:59;;;;;;;32.08;23.15;;;8.10;95.60;;;;;;6161677;23;20032;-94
2021/11/04 05:41:41;;;;;;;29.85;21.27;;;8.10;95.70;;;;;;6160867;23;20052;-90
2021/11/04 05:44:17;;;;;;;28.65;20.70;;;8.10;95.70;;;;;;6161545;23;20320;-90
2021/11/04 05:46:43;;;;;;;29.27;21.05;;;8.20;95.70;;;;;;6137322;23;20006;-92
2021/11/04 05:49:36;;;;;;;29.15;20.85;;;8.20;95.60;;;;;;6160654;23;20028;-92
2021/11/04 05:52:08;;;;;;;29.40;21.00;;;8.20;95.60;;;;;;6136735;23;20013;-91
2021/11/04 05:54:37;;;;;;;28.50;21.42;;;8.20;95.70;;;;;;6160191;23;20002;-91
2021/11/04 05:57:05;;;;;;;35.13;22.35;;;8.20;95.60;;;;;;6159055;23;20013;-91
2021/11/04 06:00:20;;;;;;;31.55;23.42;;;8.20;95.70;;;;;;6161051;23;20001;-90
2021/11/04 06:02:56;;;;;;;;;;;;;;;;;;;;;
2021/11/04 06:05:24;;;;;;;31.92;23.70;;;8.20;95.60;;;;;;6164369;23;20021;-92
2021/11/04 06:08:00;;;;;;;;;;;;;;;;;;;;;
2021/11/04 06:11:00;;;;;;;35.10;23.15;;;8.20;95.60;;;;;;6183664;23;19989;-92
2021/11/04 06:13:36;;;;;;;31.40;22.00;;;8.10;95.60;;;;;;6182329;23;19989;-93
2021/11/04 06:16:55;;;;;;;;;;;;;;;;;;;;;
2021/11/04 06:19:27;;;;;;;29.75;22.52;;;8.10;95.70;;;;;;6161660;23;20028;-94
2021/11/04 06:22:05;;;;;;;;;;;;;;;;;;;;;
2021/11/04 06:24:33;;;;;;;32.08;23.35;;;8.10;95.70;;;;;;6161729;23;20037;-92
2021/11/04 06:27:07;;;;;;;32.03;23.40;;;8.10;95.70;;;;;;6136363;23;20017;-92
2021/11/04 06:29:53;;;;;;;35.30;23.63;;;8.10;95.70;;;;;;6177212;23;20009;-94
2021/11/04 06:32:27;;;;;;;31.50;22.38;;;8.10;95.70;;;;;;6165367;23;20005;-91
2021/11/04 06:35:00;;;;;;;30.70;22.35;;;8.10;95.70;;;;;;6192494;23;20001;-93
2021/11/04 06:38:07;;;;;;;27.75;22.02;;;8.10;95.70;;;;;;6165641;23;20078;-95
2021/11/04 06:40:42;;;;;;;25.40;18.65;;;8.10;95.70;;;;;;6140813;23;20013;-92
2021/11/04 06:46:45;;;;;;;27.02;20.23;;;8.10;95.60;;;;;;6074283;23;20272;-91
2021/11/04 06:55:45;;;;;;;29.42;22.08;;;8.00;95.50;;;;;;6185610;23;20075;-92
2021/11/04 06:58:24;;;;;;;28.60;20.35;;;8.00;95.50;;;;;;6164941;23;20013;-92
2021/11/04 07:04:43;;;;;;;30.80;22.95;;;8.00;95.60;;;;;;6173079;23;20012;-93
2021/11/04 07:07:17;;;;;;;31.02;22.73;;;8.00;95.60;;;;;;6163368;23;20080;-91
2021/11/04 07:09:53;;;;;;;29.73;20.88;;;8.00;95.60;;;;;;6164234;23;20005;-92
2021/11/04 07:13:40;;;;;;;;;;;;;;;;;;;;;
2021/11/04 07:16:39;;;;;;;29.63;20.65;;;8.00;95.60;;;;;;6024579;23;20007;-89
2021/11/04 07:19:07;;;;;;;25.48;18.63;;;8.00;95.60;;;;;;6045256;23;20334;-89
2021/11/04 07:21:36;;;;;;;27.60;19.08;;;8.00;95.60;;;;;;6022013;23;20098;-89
2021/11/04 07:24:18;;;;;;;;;;;;;;;;;;;;;
2021/11/04 07:27:11;;;;;;;;;;;;;;;;;;;;;
2021/11/04 07:30:18;;;;;;;24.52;19.02;;;8.00;95.60;;;;;;6068510;23;20089;-91
2021/11/04 07:33:17;;;;;;;22.85;17.27;;;8.00;95.60;;;;;;6068998;23;20007;-90
2021/11/04 07:35:48;;;;;;;24.65;17.30;;;8.00;95.70;;;;;;6070852;23;20079;-88
2021/11/04 07:38:17;;;;;;;25.05;16.58;;;8.00;95.60;;;;;;6046804;23;20070;-92
2021/11/04 07:40:48;;;;;;;23.00;16.13;;;8.00;95.60;;;;;;6048787;23;20034;-91
2021/11/04 07:44:08;;;;;;;22.48;16.77;;;8.00;95.70;;;;;;6070414;23;20007;-91
2021/11/04 07:57:10;;;;;;;20.25;14.98;;;7.90;95.60;;;;;;6106618;23;20096;-93
2021/11/04 08:00:13;;;;;;;24.35;16.48;;;8.00;95.70;;;;;;6133355;23;20032;-91
2021/11/04 08:03:12;;;;;;;;;;;;;;;;;;;;;
2021/11/04 08:05:53;;;;;;;22.67;16.23;;;8.00;95.70;;;;;;6162379;23;20036;-89
2021/11/04 08:08:44;;;;;;;22.27;15.52;;;8.00;95.80;;;;;;6136401;23;20442;-92
2021/11/04 08:11:10;;;;;;;23.05;16.45;;;8.00;95.80;;;;;;6162955;23;20024;-92
2021/11/04 08:13:53;;;;;;;;;;;;;;;;;;;;;
2021/11/04 08:16:52;;;;;;;;;;;;;;;;;;;;;
2021/11/04 08:19:35;;;;;;;21.35;16.25;;;8.10;95.80;;;;;;6164146;23;20036;-91
2021/11/04 08:22:17;;;;;;;21.10;15.88;;;8.10;95.90;;;;;;6135527;23;20037;-90
2021/11/04 08:24:50;;;;;;;19.77;16.02;;;8.20;95.90;;;;;;6139761;23;20072;-91
2021/11/04 08:27:37;;;;;;;;;;;;;;;;;;;;;
2021/11/04 08:34:20;;;;;;;;;;;;;;;;;;;;;
2021/11/04 08:36:49;;;;;;;21.50;16.27;;;8.40;95.80;;;;;;6192516;23;19986;-90
2021/11/04 08:39:18;;;;;;;21.40;16.83;;;8.40;95.80;;;;;;6193014;23;20016;-89
2021/11/04 08:41:47;;;;;;;22.67;17.35;;;8.50;95.80;;;;;;6141223;23;20027;-91
2021/11/04 08:45:02;;;;;;;;;;;;;;;;;;;;;
2021/11/04 08:50:35;;;;;;;21.55;16.75;;;8.60;95.80;;;;;;6190354;23;20354;-89
2021/11/04 08:53:12;;;;;;;22.60;18.00;;;8.60;95.70;;;;;;6191374;23;20076;-90
2021/11/04 08:56:01;;;;;;;22.63;17.77;;;8.60;95.70;;;;;;6142166;23;20013;-90
2021/11/04 08:59:05;;;;;;;23.67;17.77;;;8.70;95.70;;;;;;6140555;23;20025;-90
2021/11/04 09:02:05;;;;;;;19.88;14.95;;;8.70;95.60;;;;;;6144969;23;20100;-92
2021/11/04 09:04:47;;;;;;;;;;;;;;;;;;;;;
2021/11/04 09:07:27;;;;;;;19.05;15.43;;;8.80;95.60;;;;;;6191566;23;20036;-91
2021/11/04 09:10:06;;;;;;;;;;;;;;;;;;;;;
2021/11/04 09:12:54;;;;;;;20.48;16.60;;;8.90;95.50;;;;;;6191230;23;20025;-90
2021/11/04 09:15:44;;;;;;;21.85;17.20;;;8.90;95.30;;;;;;6166931;23;20031;-91
2021/11/04 09:18:40;;;;;;;20.50;16.60;;;9.00;95.30;;;;;;6181712;23;19993;-92
2021/11/04 09:21:08;;;;;;;22.40;17.45;;;9.00;95.30;;;;;;6188855;23;19996;-93
2021/11/04 09:24:12;;;;;;;;;;;;;;;;;;;;;
2021/11/04 09:27:10;;;;;;;20.98;16.33;;;9.00;95.30;;;;;;6166264;23;19989;-93
2021/11/04 09:33:03;;;;;;;;;;;;;;;;;;;;;
2021/11/04 09:35:39;;;;;;;23.25;17.73;;;9.10;95.30;;;;;;6190735;23;20033;-90
2021/11/04 09:38:21;;;;;;;21.55;17.35;;;9.10;95.20;;;;;;6142046;23;20012;-92
2021/11/04 09:41:07;;;;;;;;;;;;;;;;;;;;;
2021/11/04 09:43:41;;;;;;;22.27;17.58;;;9.10;95.20;;;;;;6189963;23;20083;-92
2021/11/04 09:46:33;;;;;;;25.63;17.65;;;9.10;95.10;;;;;;6165041;23;20020;-92
2021/11/04 09:52:55;;;;;;;24.02;18.52;;;9.10;95.10;;;;;;6140945;23;20009;-91
2021/11/04 09:55:51;;;;;;;;;;;;;;;;;;;;;
2021/11/04 09:58:19;;;;;;;22.58;17.55;;;9.20;95.20;;;;;;6166437;23;20076;-92
2021/11/04 10:08:12;;;;;;;21.52;16.45;;;9.30;95.10;;;;;;6041792;23;20186;-92
2021/11/04 10:11:09;;;;;;;18.92;15.20;;;9.30;95.00;;;;;;6084061;23;20115;-91
2021/11/04 10:14:25;;;;;;;;;;;;;;;;;;;;;
2021/11/04 10:17:41;;;;;;;22.23;16.48;;;9.30;94.90;;;;;;6112892;23;20081;-90
2021/11/04 10:20:48;;;;;;;22.95;18.75;;;9.40;94.90;;;;;;6104281;23;20010;-90
2021/11/04 10:27:17;;;;;;;;;;;9.40;94.90;;;;;;6101806;23;20066;-92
2021/11/04 10:29:56;;;;;;;23.85;18.23;;;9.40;94.90;;;;;;6161911;23;19906;-92
2021/11/04 10:33:24;;;;;;;;;;;;;;;;;;;;;
2021/11/04 10:36:39;;;;;;;21.75;18.38;;;9.50;94.90;;;;;;5989514;23;20083;-91
2021/11/04 10:39:11;;;;;;;24.95;16.48;;;9.50;94.90;;;;;;6057245;23;20005;-89
2021/11/04 10:49:10;;;;;;;22.98;16.42;;;9.60;94.90;;;;;;6065936;23;20089;-90
2021/11/04 10:55:49;;;;;;;22.70;16.85;;;9.70;94.90;;;;;;6151961;23;20151;-90
2021/11/04 11:05:43;;;;;;;;;;;;;;;;;;;;;
2021/11/04 11:08:46;;;;;;;;;;;;;;;;;;;;;
2021/11/04 11:15:15;;;;;;;18.85;16.80;;;9.80;94.70;;;;;;6116593;23;20068;-93
2021/11/04 11:18:20;;;;;;;18.83;16.13;;;9.90;94.70;;;;;;6131886;23;20009;-90
2021/11/04 11:24:41;;;;;;;21.33;17.65;;;10.00;95.00;;;;;;6135796;23;20096;-89
2021/11/04 11:28:18;;;;;;;;;;;;;;;;;;;;;
2021/11/04 11:31:26;;;;;;;19.60;15.70;;;10.10;94.70;;;;;;6171747;23;20400;-91
2021/11/04 11:34:38;;;;;;;;;;;;;;;;;;;;;
2021/11/04 11:37:15;;;;;;;21.08;17.38;;;10.10;94.60;;;;;;6190195;23;20088;-90
2021/11/04 11:40:16;;;;;;;26.20;19.45;;;10.20;94.70;;;;;;6164593;23;20320;-89
2021/11/04 11:43:10;;;;;;;;;;;;;;;;;;;;;
2021/11/04 11:46:10;;;;;;;24.23;18.88;;;10.20;94.60;;;;;;6188648;23;20049;-90
2021/11/04 11:48:54;;;;;;;;;;;;;;;;;;;;;
2021/11/04 11:51:47;;;;;;;;;;;;;;;;;;;;;
2021/11/04 11:54:18;;;;;;;22.40;18.48;;;10.20;94.50;;;;;;6190703;23;20023;-89
2021/11/04 12:01:24;;;;;;;;;;;;;;;;;;;;;
2021/11/04 12:04:13;;;;;;;24.70;18.77;;;10.20;94.40;;;;;;6178899;23;20080;-90
2021/11/04 12:07:00;;;;;;;;;;;;;;;;;;;;;
2021/11/04 12:09:46;;;;;;;22.02;18.02;;;10.20;94.50;;;;;;6189976;23;20039;-89
2021/11/04 12:12:47;;;;;;;22.58;17.65;;;10.20;94.50;;;;;;6163884;23;20009;-94
2021/11/04 12:15:18;;;;;;;22.23;18.05;;;10.20;94.50;;;;;;6162911;23;20012;-90
2021/11/04 12:21:40;;;;;;;22.98;18.38;;;10.30;94.60;;;;;;6079979;23;20463;-90
2021/11/04 12:24:17;;;;;;;24.30;17.90;;;10.40;94.50;;;;;;6163626;23;20009;-90
2021/11/04 12:34:20;;;;;;;21.08;17.38;;;10.40;94.40;;;;;;6190639;23;20056;-91
2021/11/04 12:40:14;;;;;;;19.20;17.00;;;10.50;94.40;;;;;;6213667;23;20020;-90
2021/11/04 12:46:27;;;;;;;18.75;16.50;;;10.60;94.20;;;;;;6203590;23;20449;-89
2021/11/04 12:49:11;;;;;;;19.42;16.83;;;10.60;94.20;;;;;;6144156;23;20047;-91
2021/11/04 12:55:17;;;;;;;;;;;;;;;;;;;;;
2021/11/04 12:58:30;;;;;;;;;;;;;;;;;;;;;
2021/11/04 13:01:04;;;;;;;20.30;17.42;;;10.70;94.20;;;;;;6167401;23;20092;-88
2021/11/04 13:03:39;;;;;;;20.65;16.50;;;10.80;94.10;;;;;;6165939;23;20449;-91
2021/11/04 13:06:19;;;;;;;20.52;16.42;;;10.80;94.10;;;;;;6166380;23;20001;-89
2021/11/04 13:08:46;;;;;;;19.38;17.27;;;10.80;94.10;;;;;;6166514;23;20004;-90
2021/11/04 13:11:26;;;;;;;21.33;17.10;;;10.80;93.90;;;;;;6166476;23;20012;-90
2021/11/04 13:14:07;;;;;;;21.30;17.25;;;10.80;93.90;;;;;;6193103;23;20029;-92
2021/11/04 13:16:48;;;;;;;19.17;16.52;;;10.80;93.80;;;;;;6167104;23;20423;-91
2021/11/04 13:19:24;;;;;;;22.08;17.90;;;10.80;93.70;;;;;;6141449;23;20049;-90
2021/11/04 13:21:59;;;;;;;18.80;15.88;;;10.80;93.70;;;;;;6165016;23;20427;-92
2021/11/04 13:24:28;;;;;;;17.05;15.25;;;10.80;93.70;;;;;;6141127;23;20012;-91
2021/11/04 13:26:59;;;;;;;20.85;15.30;;;10.80;93.60;;;;;;6166074;23;20005;-90
2021/11/04 13:30:13;;;;;;;19.15;16.30;;;10.80;93.70;;;;;;6165327;23;20029;-90
2021/11/04 13:32:47;;;;;;;18.75;16.52;;;10.80;93.70;;;;;;6165142;23;20045;-90
2021/11/04 13:35:54;;;;;;;18.58;16.58;;;10.80;93.60;;;;;;6164393;23;20001;-91
2021/11/04 13:38:33;;;;;;;17.85;15.10;;;10.80;93.70;;;;;;6165139;23;20013;-90
2021/11/04 13:41:05;;;;;;;20.27;16.77;;;10.80;93.70;;;;;;6164520;23;20005;-89
2021/11/04 13:43:42;;;;;;;19.40;15.77;;;10.80;93.70;;;;;;6163922;23;20031;-91
2021/11/04 13:46:21;;;;;;;18.92;15.48;;;10.80;93.70;;;;;;6165068;23;20079;-89
2021/11/04 13:49:06;;;;;;;;;;;;;;;;;;;;;
2021/11/04 13:55:15;;;;;;;16.52;14.57;;;10.80;93.70;;;;;;6192395;23;20049;-90
2021/11/04 13:57:59;;;;;;;14.98;13.07;;;10.80;93.70;;;;;;6168335;23;20009;-89
2021/11/04 14:00:42;;;;;;;15.38;13.45;;;10.80;93.70;;;;;;6165782;23;20032;-90
2021/11/04 14:03:36;;;;;;;15.30;13.25;;;10.90;93.70;;;;;;6166812;23;20001;-89
2021/11/04 14:06:26;;;;;;;14.30;12.75;;;10.90;93.70;;;;;;6100004;23;20016;-90
2021/11/04 14:09:03;;;;;;;15.90;13.20;;;10.90;93.60;;;;;;6165209;23;20012;-89
2021/11/04 14:11:43;;;;;;;14.02;12.52;;;10.90;93.60;;;;;;6118785;23;20428;-88
2021/11/04 14:14:15;;;;;;;13.88;12.38;;;10.90;93.50;;;;;;6118748;23;20013;-88
2021/11/04 14:16:47;;;;;;;14.65;13.02;;;11.00;93.50;;;;;;6169717;23;20009;-90
2021/11/04 14:19:18;;;;;;;20.30;13.38;;;11.00;93.30;;;;;;6188635;23;20048;-88
2021/11/04 14:21:44;;;;;;;15.88;13.23;;;10.90;93.30;;;;;;6189251;23;20025;-89
2021/11/04 14:24:12;;;;;;;14.45;12.55;;;10.90;93.30;;;;;;6188045;23;20016;-89
2021/11/04 14:26:41;;;;;;;13.48;12.02;;;10.90;93.30;;;;;;6182774;23;20509;-89
2021/11/04 14:29:20;;;;;;;15.50;12.68;;;10.90;93.30;;;;;;6167137;23;20001;-89
2021/11/04 14:31:52;;;;;;;14.82;13.23;;;10.90;93.30;;;;;;6135741;23;20024;-90
2021/11/04 14:34:19;;;;;;;14.75;12.27;;;10.90;93.20;;;;;;6159861;23;20002;-88
2021/11/04 14:37:12;;;;;;;13.82;12.43;;;10.90;93.10;;;;;;6160231;23;20013;-89
2021/11/04 14:39:38;;;;;;;16.67;12.63;;;10.90;93.20;;;;;;6161287;23;20012;-88
2021/11/04 14:42:05;;;;;;;13.68;11.90;;;10.90;93.20;;;;;;6159017;23;20008;-87
2021/11/04 14:44:33;;;;;;;16.13;12.15;;;10.90;93.30;;;;;;6159703;23;20021;-89
2021/11/04 14:47:12;;;;;;;15.73;12.43;;;10.80;93.30;;;;;;6135452;23;20017;-90
2021/11/04 14:49:42;;;;;;;13.23;11.82;;;10.80;93.30;;;;;;6160911;23;20005;-88
2021/11/04 14:52:18;;;;;;;13.10;11.80;;;10.80;93.30;;;;;;6160360;23;20029;-90
2021/11/04 14:54:56;;;;;;;14.75;12.85;;;10.80;93.30;;;;;;6159882;23;20001;-89
2021/11/04 15:00:47;;;;;;;14.20;12.27;;;10.70;93.30;;;;;;6155509;23;20010;-90
2021/11/04 15:03:39;;;;;;;14.20;12.10;;;10.70;93.30;;;;;;6139004;23;20012;-88
2021/11/04 15:06:35;;;;;;;;;;;;;;;;;;;;;
2021/11/04 15:10:02;;;;;;;14.40;12.57;;;10.60;93.40;;;;;;6160491;23;20081;-88
2021/11/04 15:12:46;;;;;;;14.75;12.48;;;10.70;93.50;;;;;;6161067;23;19997;-90
2021/11/04 15:18:24;;;;;;;;;;;;;;;;;;;;;
2021/11/04 15:23:46;;;;;;;14.45;12.95;;;10.50;93.50;;;;;;6041619;23;20011;-88
2021/11/04 15:26:18;;;;;;;14.02;12.52;;;10.50;93.60;;;;;;6071890;23;20005;-89
2021/11/04 15:28:55;;;;;;;14.70;12.43;;;10.40;93.50;;;;;;6158902;23;20436;-89
2021/11/04 15:31:47;;;;;;;14.40;12.45;;;10.40;93.60;;;;;;6158817;23;20013;-91
2021/11/04 15:34:37;;;;;;;13.98;12.57;;;10.30;93.60;;;;;;6160005;23;20466;-91
2021/11/04 15:37:17;;;;;;;14.77;13.18;;;10.30;93.50;;;;;;6139839;23;20018;-91
2021/11/04 15:40:22;;;;;;;;;;;;;;;;;;;;;
2021/11/04 15:42:55;;;;;;;20.50;16.60;;;10.20;93.60;;;;;;6158360;23;20002;-91
2021/11/04 15:45:42;;;;;;;18.25;15.77;;;10.20;93.60;;;;;;6161516;23;19986;-91
2021/11/04 15:48:25;;;;;;;;;;;;;;;;;;;;;
2021/11/04 15:51:05;;;;;;;16.23;14.10;;;10.00;93.60;;;;;;6138672;23;20049;-91
2021/11/04 15:53:59;;;;;;;15.60;13.00;;;10.00;93.60;;;;;;6160975;23;20503;-90
2021/11/04 15:56:31;;;;;;;15.63;12.85;;;9.90;93.60;;;;;;6162288;23;20495;-92
2021/11/04 15:59:10;;;;;;;16.20;14.00;;;9.80;93.70;;;;;;6180194;23;20005;-91
2021/11/04 16:01:36;;;;;;;14.77;13.00;;;9.80;93.70;;;;;;6182590;23;20005;-92
2021/11/04 16:04:09;;;;;;;15.10;13.13;;;9.70;93.70;;;;;;6173119;23;20000;-90
2021/11/04 16:06:49;;;;;;;14.52;12.98;;;9.70;93.80;;;;;;6153040;23;20009;-91
2021/11/04 16:09:20;;;;;;;19.58;14.25;;;9.60;93.80;;;;;;6160813;23;20029;-90
2021/11/04 16:11:51;;;;;;;16.30;12.95;;;9.60;93.80;;;;;;6159343;23;20049;-90
2021/11/04 16:15:00;;;;;;;15.50;13.52;;;9.50;93.90;;;;;;6135580;23;20001;-93
2021/11/04 16:17:39;;;;;;;;;;;;;;;;;;;;;
2021/11/04 16:20:05;;;;;;;15.50;13.88;;;9.50;93.90;;;;;;6159696;23;20392;-90
2021/11/04 16:22:31;;;;;;;17.48;13.95;;;9.50;93.90;;;;;;6137178;23;20009;-90
2021/11/04 16:24:57;;;;;;;16.80;13.85;;;9.40;93.90;;;;;;6160663;23;20040;-90
2021/11/04 16:27:24;;;;;;;17.35;14.38;;;9.40;93.90;;;;;;6160569;23;20335;-91
2021/11/04 16:29:50;;;;;;;15.07;12.90;;;9.40;94.00;;;;;;6160503;23;20002;-89
2021/11/04 16:32:16;;;;;;;16.48;13.05;;;9.30;94.00;;;;;;6165602;23;20013;-90
2021/11/04 16:34:43;;;;;;;16.50;13.85;;;9.30;94.00;;;;;;6165645;23;20016;-93
2021/11/04 16:37:27;;;;;;;15.32;13.60;;;9.20;94.00;;;;;;6165937;23;20009;-93
2021/11/04 16:39:53;;;;;;;14.77;12.73;;;9.20;94.10;;;;;;6165772;23;20012;-91
2021/11/04 16:42:19;;;;;;;15.95;13.95;;;9.20;94.10;;;;;;6165539;23;20005;-91
2021/11/04 16:44:50;;;;;;;16.33;13.20;;;9.10;94.10;;;;;;6164643;23;20458;-91
2021/11/04 16:47:19;;;;;;;14.03;12.53;;;9.10;94.00;;;;;;6140208;23;20016;-91
2021/11/04 16:49:50;;;;;;;15.25;13.13;;;9.10;94.00;;;;;;6191742;23;20028;-91
2021/11/04 16:52:18;;;;;;;14.80;13.15;;;9.00;94.00;;;;;;6166202;23;20395;-89
2021/11/04 16:54:46;;;;;;;14.23;12.73;;;9.00;94.00;;;;;;6165353;23;20067;-92
2021/11/04 16:57:14;;;;;;;16.63;13.73;;;8.90;94.00;;;;;;6166142;23;20454;-91
2021/11/04 16:59:50;;;;;;;16.67;12.57;;;8.80;94.00;;;;;;6165087;23;20020;-93
2021/11/04 17:02:24;;;;;;;14.82;13.15;;;8.80;94.00;;;;;;6165037;23;19997;-91
2021/11/04 17:04:57;;;;;;;15.88;13.35;;;8.80;94.00;;;;;;6165715;23;19997;-92
2021/11/04 17:07:34;;;;;;;14.50;12.48;;;8.70;94.00;;;;;;6168695;23;20427;-91
2021/11/04 17:10:02;;;;;;;16.00;13.02;;;8.70;94.00;;;;;;6165250;23;20004;-90
2021/11/04 17:12:28;;;;;;;17.23;13.00;;;8.60;94.00;;;;;;6164918;23;20001;-91
2021/11/04 17:14:57;;;;;;;14.20;11.80;;;8.60;94.00;;;;;;6140297;23;20008;-89
2021/11/04 17:17:26;;;;;;;14.43;12.90;;;8.50;94.00;;;;;;6164281;23;20005;-89
2021/11/04 17:19:53;;;;;;;16.83;13.02;;;8.50;94.10;;;;;;6164166;23;20016;-89
2021/11/04 17:22:24;;;;;;;14.45;12.95;;;8.50;94.10;;;;;;6163896;23;19997;-89
2021/11/04 17:24:50;;;;;;;14.45;12.70;;;8.40;94.10;;;;;;6165789;23;20438;-91
2021/11/04 17:27:17;;;;;;;17.95;13.18;;;8.40;94.20;;;;;;6165363;23;20008;-88
2021/11/04 17:29:43;;;;;;;18.08;13.57;;;8.40;94.20;;;;;;6165878;23;20004;-88
2021/11/04 17:32:12;;;;;;;14.13;12.50;;;8.40;94.20;;;;;;6191149;23;20016;-90
2021/11/04 17:34:41;;;;;;;16.65;13.27;;;8.40;94.30;;;;;;6170716;23;20074;-89
2021/11/04 17:37:09;;;;;;;17.15;14.20;;;8.40;94.30;;;;;;6164405;23;19997;-86
2021/11/04 17:39:51;;;;;;;15.30;13.13;;;8.30;94.30;;;;;;6164491;23;20020;-91
2021/11/04 17:42:25;;;;;;;15.75;13.07;;;8.30;94.40;;;;;;6164862;23;20011;-89
2021/11/04 17:44:51;;;;;;;16.85;13.68;;;8.30;94.40;;;;;;6180619;23;20088;-89
2021/11/04 17:47:28;;;;;;;17.50;13.57;;;8.40;94.50;;;;;;6166425;23;20445;-91
2021/11/04 17:50:20;;;;;;;16.40;13.38;;;8.40;94.60;;;;;;6164864;23;19997;-90
2021/11/04 17:52:50;;;;;;;16.23;13.80;;;8.40;94.60;;;;;;6164558;23;20083;-89
2021/11/04 17:55:18;;;;;;;17.52;13.15;;;8.50;94.70;;;;;;6165008;23;20047;-90
2021/11/04 17:57:50;;;;;;;14.63;12.55;;;8.50;94.80;;;;;;6139924;23;20047;-89
2021/11/04 18:00:54;;;;;;;;;;;;;;;;;;;;;
2021/11/04 18:07:14;;;;;;;16.45;13.38;;;8.60;94.90;;;;;;6099446;23;20038;-88
2021/11/04 18:09:52;;;;;;;16.10;13.10;;;8.60;94.90;;;;;;6100487;23;20003;-89
2021/11/04 18:12:28;;;;;;;;;;;;;;;;;;;;;
2021/11/04 18:15:13;;;;;;;16.80;14.00;;;8.60;94.90;;;;;;5967393;23;20673;-89
2021/11/04 18:21:28;;;;;;;15.02;12.27;;;8.70;95.00;;;;;;5958904;24;20023;-89
2021/11/04 18:23:58;;;;;;;46.13;31.70;;;8.70;95.00;;;;;;6002067;23;20017;-89
2021/11/04 18:26:46;;;;;;;32.08;23.70;;;8.70;95.00;;;;;;6099176;23;20088;-91
2021/11/04 18:29:23;;;;;;;29.17;20.40;;;8.80;95.00;;;;;;6100347;23;20006;-90
2021/11/04 18:32:24;;;;;;;22.77;17.02;;;8.80;95.00;;;;;;6100167;23;20025;-90
2021/11/04 18:34:53;;;;;;;16.83;14.50;;;8.80;95.00;;;;;;6081888;23;20006;-88
2021/11/04 18:37:22;;;;;;;16.90;14.00;;;8.80;95.00;;;;;;6160345;23;20096;-89
2021/11/04 18:39:58;;;;;;;17.50;14.55;;;8.70;94.90;;;;;;6164214;23;20028;-90
2021/11/04 18:42:28;;;;;;;16.92;14.15;;;8.70;94.90;;;;;;6164897;23;20331;-91
2021/11/04 18:47:46;;;;;;;16.55;14.80;;;8.70;95.00;;;;;;6190713;23;20068;-90
2021/11/04 18:50:13;;;;;;;17.02;13.82;;;8.70;95.00;;;;;;6140331;23;20013;-89
2021/11/04 18:52:41;;;;;;;16.00;13.40;;;8.70;95.00;;;;;;6164684;23;20015;-90
2021/11/04 19:12:07;;;;;;;15.25;12.93;;;8.70;95.10;;;;;;6200885;23;20028;-89
2021/11/04 19:20:14;;;;;;;17.90;13.85;;;8.70;95.10;;;;;;6213195;23;20012;-89
2021/11/04 19:22:40;;;;;;;15.85;13.10;;;8.60;95.10;;;;;;6169630;23;20326;-89
2021/11/04 19:25:16;;;;;;;15.38;13.15;;;8.60;95.10;;;;;;6165613;23;20021;-86
2021/11/04 19:27:51;;;;;;;;;;;;;;;;;;;;;
2021/11/04 19:30:32;;;;;;;14.85;13.05;;;8.60;95.00;;;;;;6191830;23;20020;-88
2021/11/04 19:33:07;;;;;;;16.95;14.05;;;8.50;95.00;;;;;;6112860;23;20041;-88
2021/11/04 19:35:46;;;;;;;16.25;14.15;;;8.50;95.00;;;;;;6112073;23;20025;-89
2021/11/04 19:38:30;;;;;;;17.50;15.07;;;8.50;95.00;;;;;;6136071;23;20010;-88
2021/11/04 19:41:42;;;;;;;16.30;14.48;;;8.50;95.10;;;;;;6114963;23;20005;-89
2021/11/04 19:44:12;;;;;;;16.88;14.38;;;8.50;95.10;;;;;;6136018;23;20028;-89
2021/11/04 19:47:09;;;;;;;15.90;13.85;;;8.50;95.10;;;;;;6134396;23;20431;-89
2021/11/04 19:49:56;;;;;;;18.17;14.68;;;8.60;95.20;;;;;;6163496;23;20009;-89